Time;durP1;ratioP1;P1;durP2;ratioP2;P2;SDS_P1;SDS_P2;PMS_P1;PMS_P2;Temp;Humidity;BMP_temperature;BMP_pressure;BME280_temperature;BME280_humidity;BME280_pressure;Samples;Min_cycle;Max_cycle;Signal;HPM_P1;HPM_P2
2023/03/31 00:00:56;;;;;;;8.30;1.97;;;;;;;13.45;73.79;99830.50;5052934;28;20209;-69
2023/03/31 00:03:24;;;;;;;5.23;1.40;;;;;;;13.45;73.72;99837.69;5051794;28;22518;-70
2023/03/31 00:05:56;;;;;;;11.23;2.50;;;;;;;13.46;73.88;99829.47;5051234;28;20207;-69
2023/03/31 00:08:28;;;;;;;9.57;2.37;;;;;;;13.44;73.99;99833.34;5052703;28;20227;-69
2023/03/31 00:10:58;;;;;;;11.27;2.50;;;;;;;13.44;74.01;99833.34;5053374;28;20668;-69
2023/03/31 00:13:28;;;;;;;7.27;2.17;;;;;;;13.42;74.22;99822.06;5054683;28;20220;-70
2023/03/31 00:16:00;;;;;;;7.23;2.53;;;;;;;13.46;73.84;99824.16;5059751;28;20204;-69
2023/03/31 00:18:28;;;;;;;8.00;1.90;;;;;;;13.60;73.48;99819.84;5056888;28;20854;-69
2023/03/31 00:21:07;;;;;;;7.97;1.80;;;;;;;13.60;73.31;99813.69;5055368;28;20208;-69
2023/03/31 00:23:34;;;;;;;11.40;2.17;;;;;;;13.54;73.47;99805.41;5056745;28;20211;-69
2023/03/31 00:26:02;;;;;;;8.93;2.20;;;;;;;13.54;73.58;99801.97;5055592;28;20677;-70
2023/03/31 00:28:32;;;;;;;8.03;1.67;;;;;;;13.52;73.47;99799.47;5056598;28;20228;-67
2023/03/31 00:31:01;;;;;;;10.43;1.70;;;;;;;13.51;73.34;99797.81;5056288;28;20307;-68
2023/03/31 00:33:29;;;;;;;5.37;1.50;;;;;;;13.52;73.21;99794.16;5054719;28;20215;-69
2023/03/31 00:36:00;;;;;;;7.80;1.93;;;;;;;13.50;73.11;99785.50;5053523;28;20248;-69
2023/03/31 00:38:29;;;;;;;9.73;2.07;;;;;;;13.50;72.78;99774.03;5052892;28;20684;-69
2023/03/31 00:40:58;;;;;;;9.90;3.37;;;;;;;13.52;73.05;99777.34;5036096;28;21099;-69
2023/03/31 00:43:29;;;;;;;11.10;2.43;;;;;;;13.52;73.14;99769.34;5036542;28;20214;-69
2023/03/31 00:46:07;;;;;;;8.97;1.70;;;;;;;13.47;73.52;99774.38;5035754;28;20204;-69
2023/03/31 00:48:37;;;;;;;12.80;2.13;;;;;;;13.47;73.45;99769.06;5036437;28;20248;-68
2023/03/31 00:51:07;;;;;;;4.87;1.53;;;;;;;13.44;73.53;99759.63;5036130;28;20212;-69
2023/03/31 00:53:36;;;;;;;5.93;1.47;;;;;;;13.46;73.44;99751.41;5037551;28;20208;-68
2023/03/31 00:56:08;;;;;;;8.27;1.70;;;;;;;13.47;73.26;99743.25;5036061;28;20237;-69
2023/03/31 00:58:42;;;;;;;10.73;1.67;;;;;;;13.52;72.89;99751.53;5038057;28;20203;-69
2023/03/31 01:01:16;;;;;;;8.77;2.00;;;;;;;13.50;73.05;99747.38;5036576;28;20246;-69
2023/03/31 01:03:45;;;;;;;12.67;1.87;;;;;;;13.54;72.53;99748.69;5036930;28;20753;-69
2023/03/31 01:06:18;;;;;;;11.17;2.20;;;;;;;13.56;71.19;99742.13;5035705;28;20890;-69
2023/03/31 01:08:48;;;;;;;7.40;1.47;;;;;;;13.65;69.75;99734.88;5034878;28;20239;-69
2023/03/31 01:11:20;;;;;;;6.90;1.50;;;;;;;13.72;68.70;99722.47;5036963;28;20208;-70
2023/03/31 01:13:50;;;;;;;7.77;2.13;;;;;;;13.80;67.20;99711.72;5034977;28;20212;-69
2023/03/31 01:16:19;;;;;;;11.37;1.70;;;;;;;13.87;66.66;99712.63;5038398;28;20208;-70
2023/03/31 01:18:48;;;;;;;7.90;1.60;;;;;;;13.96;66.13;99708.00;5037142;28;20208;-69
2023/03/31 01:21:55;;;;;;;6.90;1.53;;;;;;;14.09;65.01;99701.97;5032653;28;20296;-69
2023/03/31 01:25:03;;;;;;;6.83;1.90;;;;;;;14.11;64.55;99698.09;5037766;28;20204;-69
2023/03/31 01:27:49;;;;;;;6.53;1.50;;;;;;;14.19;64.50;99699.81;5006314;28;21177;-69
2023/03/31 01:30:51;;;;;;;12.70;1.60;;;;;;;14.27;64.11;99692.53;5035860;28;20208;-68
2023/03/31 01:33:50;;;;;;;11.37;2.10;;;;;;;14.33;63.59;99690.94;5036258;28;20210;-69
2023/03/31 01:36:50;;;;;;;6.53;1.53;;;;;;;14.36;63.42;99685.22;5036831;28;20214;-69
2023/03/31 01:39:46;;;;;;;11.67;1.60;;;;;;;14.36;63.51;99684.38;5042190;28;20231;-69
2023/03/31 01:42:21;;;;;;;9.40;2.07;;;;;;;14.39;63.40;99684.06;5032863;28;20220;-69
2023/03/31 01:44:59;;;;;;;10.27;2.10;;;;;;;14.36;63.90;99679.88;5055768;28;21297;-70
2023/03/31 01:47:39;;;;;;;9.10;1.50;;;;;;;14.38;63.77;99666.38;5054461;28;20222;-69
2023/03/31 01:50:17;;;;;;;9.83;2.40;;;;;;;14.37;63.13;99664.72;5052701;28;20221;-68
2023/03/31 01:52:49;;;;;;;9.00;2.10;;;;;;;14.30;62.82;99656.66;5052495;28;20206;-68
2023/03/31 01:55:23;;;;;;;8.87;1.63;;;;;;;14.32;62.60;99657.31;5056092;28;20207;-69
2023/03/31 01:57:54;;;;;;;5.10;1.43;;;;;;;14.34;62.29;99649.91;5053563;28;21047;-69
2023/03/31 02:00:28;;;;;;;9.70;1.80;;;;;;;14.36;62.26;99658.56;5053210;28;20214;-70
2023/03/31 02:03:01;;;;;;;12.83;1.90;;;;;;;14.42;61.93;99641.84;5051125;28;20208;-69
2023/03/31 02:05:35;;;;;;;10.53;1.93;;;;;;;14.43;62.07;99638.13;5050660;28;20216;-68
2023/03/31 02:08:08;;;;;;;6.83;1.37;;;;;;;14.49;61.42;99642.69;5052583;28;20225;-68
2023/03/31 02:10:36;;;;;;;9.30;1.80;;;;;;;14.50;61.28;99636.34;5052411;28;20580;-68
2023/03/31 02:13:08;;;;;;;7.50;1.50;;;;;;;14.48;61.63;99635.72;5052867;28;20215;-68
2023/03/31 02:15:39;;;;;;;7.87;1.53;;;;;;;14.47;61.22;99634.06;5053195;28;20212;-69
2023/03/31 02:18:10;;;;;;;7.27;1.67;;;;;;;14.46;61.69;99631.59;5052990;28;20211;-69
2023/03/31 02:20:40;;;;;;;8.97;1.53;;;;;;;14.49;61.45;99623.19;5053217;28;20207;-69
2023/03/31 02:23:12;;;;;;;5.93;1.93;;;;;;;14.49;61.70;99621.38;5055341;28;20329;-69
2023/03/31 02:25:45;;;;;;;6.90;1.50;;;;;;;14.50;61.68;99622.19;5053869;28;20704;-71
2023/03/31 02:28:19;;;;;;;10.00;1.83;;;;;;;14.47;61.71;99614.56;5052171;28;20231;-69
2023/03/31 02:30:54;;;;;;;5.97;1.43;;;;;;;14.45;61.98;99603.25;5050903;28;20319;-68
2023/03/31 02:33:22;;;;;;;8.77;1.57;;;;;;;14.41;62.17;99600.16;5054039;28;20214;-69
2023/03/31 02:35:50;;;;;;;11.50;1.50;;;;;;;14.41;62.31;99602.84;5051466;28;20207;-69
2023/03/31 02:38:18;;;;;;;7.97;2.00;;;;;;;14.36;62.47;99605.22;5053275;28;20208;-68
2023/03/31 02:40:45;;;;;;;7.57;1.53;;;;;;;14.31;62.13;99618.31;5054817;28;20243;-68
2023/03/31 02:43:14;;;;;;;5.67;1.50;;;;;;;14.30;62.17;99603.31;5053078;28;20635;-69
2023/03/31 02:45:45;;;;;;;11.33;1.40;;;;;;;14.34;62.30;99598.44;5054883;28;20573;-69
2023/03/31 02:48:18;;;;;;;8.40;1.47;;;;;;;14.27;62.54;99587.69;5053252;28;20373;-68
2023/03/31 02:51:16;;;;;;;8.10;1.37;;;;;;;14.26;62.43;99573.53;5049817;28;20206;-69
2023/03/31 02:54:04;;;;;;;6.30;1.33;;;;;;;14.19;62.59;99553.19;5046886;28;20218;-69
2023/03/31 02:56:44;;;;;;;8.30;1.67;;;;;;;14.21;62.70;99545.81;5056607;28;20207;-69
2023/03/31 02:59:32;;;;;;;5.73;0.77;;;;;;;14.21;62.69;99543.97;5055728;28;20297;-68
2023/03/31 03:02:12;;;;;;;4.97;1.17;;;;;;;14.19;63.03;99529.19;5055156;28;20815;-68
2023/03/31 03:05:07;;;;;;;6.27;1.43;;;;;;;14.21;63.17;99513.81;5053819;28;20337;-68
2023/03/31 03:07:40;;;;;;;8.43;1.40;;;;;;;14.22;62.97;99523.47;5054424;28;20684;-69
2023/03/31 03:10:13;;;;;;;7.20;1.27;;;;;;;14.22;63.30;99507.47;5052122;28;20219;-70
2023/03/31 03:12:48;;;;;;;5.83;1.23;;;;;;;14.19;63.21;99499.84;5052554;28;20222;-70
2023/03/31 03:15:24;;;;;;;6.97;1.20;;;;;;;14.25;63.29;99493.75;5050724;28;20207;-69
2023/03/31 03:17:53;;;;;;;7.43;1.40;;;;;;;14.31;63.08;99500.97;5050743;28;20324;-68
2023/03/31 03:20:22;;;;;;;5.00;1.00;;;;;;;14.22;63.50;99488.81;5053897;28;20224;-69
2023/03/31 03:22:50;;;;;;;6.83;1.30;;;;;;;14.15;64.13;99490.63;5052840;28;20280;-69
2023/03/31 03:25:19;;;;;;;6.03;1.50;;;;;;;14.16;64.32;99474.41;5051001;28;20212;-71
2023/03/31 03:27:47;;;;;;;5.20;1.10;;;;;;;14.19;63.87;99452.69;5049233;28;20667;-69
2023/03/31 03:30:15;;;;;;;6.50;1.40;;;;;;;14.17;64.33;99440.56;5050121;28;20382;-69
2023/03/31 03:32:45;;;;;;;3.63;0.80;;;;;;;14.04;64.54;99435.16;5051291;28;20221;-69
2023/03/31 03:35:13;;;;;;;6.63;1.10;;;;;;;13.99;64.89;99427.75;5051402;28;20642;-69
2023/03/31 03:37:40;;;;;;;5.90;1.30;;;;;;;13.92;65.48;99443.69;5052567;28;20551;-69
2023/03/31 03:40:09;;;;;;;13.33;1.83;;;;;;;13.98;65.16;99425.31;5048075;28;20242;-70
2023/03/31 03:42:37;;;;;;;6.67;1.40;;;;;;;14.02;64.91;99426.53;5049312;28;20214;-69
2023/03/31 03:45:06;;;;;;;5.40;1.60;;;;;;;13.92;65.24;99401.06;5052583;28;20217;-70
2023/03/31 03:47:34;;;;;;;4.60;1.33;;;;;;;13.89;65.35;99390.81;5053698;28;20211;-68
2023/03/31 03:50:05;;;;;;;11.03;2.20;;;;;;;13.78;66.13;99383.34;5053805;28;20318;-68
2023/03/31 03:52:33;;;;;;;12.83;2.00;;;;;;;13.80;66.28;99380.50;5053657;28;20261;-69
2023/03/31 03:55:01;;;;;;;10.13;1.57;;;;;;;13.68;66.74;99385.53;5055954;28;20209;-69
2023/03/31 03:57:29;;;;;;;8.30;2.10;;;;;;;13.66;66.75;99368.91;5057318;28;20215;-69
2023/03/31 03:59:57;;;;;;;7.30;1.80;;;;;;;13.63;66.87;99381.81;5054915;28;20207;-70
2023/03/31 04:02:27;;;;;;;6.60;1.40;;;;;;;13.55;67.22;99388.91;5053972;28;20581;-68
2023/03/31 04:04:55;;;;;;;9.50;1.53;;;;;;;13.52;67.58;99404.47;5053732;28;20216;-70
2023/03/31 04:07:24;;;;;;;5.17;1.47;;;;;;;13.57;67.39;99396.72;5056732;28;20691;-68
2023/03/31 04:09:51;;;;;;;6.87;2.03;;;;;;;13.58;67.38;99398.38;5054356;28;20246;-68
2023/03/31 04:12:19;;;;;;;4.57;1.37;;;;;;;13.57;67.53;99399.38;5054154;28;20253;-68
2023/03/31 04:14:47;;;;;;;8.67;2.23;;;;;;;13.54;67.79;99392.59;5053871;28;20211;-69
2023/03/31 04:17:15;;;;;;;8.07;1.50;;;;;;;13.56;67.87;99379.06;5055059;28;20759;-67
2023/03/31 04:19:42;;;;;;;9.73;2.10;;;;;;;13.47;68.61;99369.59;5054931;28;20260;-68
2023/03/31 04:22:14;;;;;;;9.00;1.73;;;;;;;13.44;69.11;99370.81;5056813;28;20268;-69
2023/03/31 04:24:45;;;;;;;7.67;1.43;;;;;;;13.41;69.27;99365.88;5054420;28;20240;-68
2023/03/31 04:27:16;;;;;;;5.67;1.97;;;;;;;13.42;69.61;99354.22;5054171;28;21001;-70
2023/03/31 04:29:53;;;;;;;11.17;2.10;;;;;;;13.46;69.20;99341.31;5057643;28;20713;-68
2023/03/31 04:32:21;;;;;;;6.93;1.63;;;;;;;13.44;69.41;99343.38;5052720;28;20230;-70
2023/03/31 04:34:49;;;;;;;9.20;2.10;;;;;;;13.45;69.39;99345.00;5055267;28;20227;-69
2023/03/31 04:37:17;;;;;;;4.50;1.20;;;;;;;13.49;69.12;99347.09;5055104;28;20646;-73
2023/03/31 04:39:49;;;;;;;6.20;1.47;;;;;;;13.53;69.24;99339.53;5054440;28;20236;-67
2023/03/31 04:42:17;;;;;;;7.23;1.83;;;;;;;13.64;69.29;99343.47;5052635;28;20199;-69
2023/03/31 04:44:44;;;;;;;8.47;1.83;;;;;;;13.54;70.45;99339.31;5051394;28;20211;-69
2023/03/31 04:47:12;;;;;;;9.20;1.80;;;;;;;13.48;71.31;99339.28;5053270;28;20208;-69
2023/03/31 04:49:40;;;;;;;6.87;1.67;;;;;;;13.47;71.52;99329.63;5053718;28;20243;-69
2023/03/31 04:52:08;;;;;;;11.23;2.07;;;;;;;13.42;72.42;99332.91;5051253;28;20211;-69
2023/03/31 04:54:35;;;;;;;8.17;1.80;;;;;;;13.44;72.84;99333.53;5054579;28;20219;-68
2023/03/31 04:57:04;;;;;;;11.87;2.13;;;;;;;13.38;73.64;99338.78;5051449;28;20825;-68
2023/03/31 04:59:32;;;;;;;7.13;1.60;;;;;;;13.37;74.26;99329.97;5053773;28;20225;-68
2023/03/31 05:02:00;;;;;;;7.07;2.00;;;;;;;13.41;73.88;99333.09;5052739;28;20208;-69
2023/03/31 05:04:27;;;;;;;8.03;1.60;;;;;;;13.33;73.68;99325.25;5052173;28;20560;-69
2023/03/31 05:06:55;;;;;;;7.40;1.70;;;;;;;13.24;74.12;99318.41;5054456;28;20208;-70
2023/03/31 05:09:23;;;;;;;8.43;1.90;;;;;;;13.19;74.64;99324.34;5052755;28;20239;-69
2023/03/31 05:11:50;;;;;;;8.60;1.70;;;;;;;13.21;74.49;99321.47;5050333;28;20222;-70
2023/03/31 05:14:20;;;;;;;8.37;1.40;;;;;;;13.22;74.18;99317.78;5051389;28;20215;-70
2023/03/31 05:16:48;;;;;;;10.67;1.57;;;;;;;13.26;74.04;99314.56;5050887;28;20298;-69
2023/03/31 05:19:17;;;;;;;6.10;1.27;;;;;;;13.24;74.39;99305.09;5050400;28;20895;-69
2023/03/31 05:21:45;;;;;;;11.17;1.77;;;;;;;13.25;74.14;99307.59;5050749;28;20238;-69
2023/03/31 05:24:13;;;;;;;7.67;1.90;;;;;;;13.13;75.37;99293.97;5051465;28;20582;-68
2023/03/31 05:26:45;;;;;;;7.30;1.77;;;;;;;13.07;76.45;99289.41;5051374;28;20213;-70
2023/03/31 05:29:15;;;;;;;7.87;1.93;;;;;;;13.01;77.93;99290.19;5049965;28;20233;-67
2023/03/31 05:31:44;;;;;;;7.93;2.23;;;;;;;12.99;78.47;99265.59;5050631;28;20216;-68
2023/03/31 05:34:12;;;;;;;10.00;2.13;;;;;;;12.88;79.21;99268.75;5052627;28;20632;-69
2023/03/31 05:36:40;;;;;;;7.77;2.43;;;;;;;12.81;80.18;99267.88;5052336;28;20272;-70
2023/03/31 05:39:07;;;;;;;9.53;2.27;;;;;;;12.83;79.96;99252.56;5006209;28;1316823;-68
2023/03/31 05:41:35;;;;;;;12.17;3.23;;;;;;;12.80;80.49;99252.94;5054203;28;20227;-69
2023/03/31 05:44:03;;;;;;;7.80;2.87;;;;;;;12.76;80.67;99241.84;5052294;28;20298;-69
2023/03/31 05:46:31;;;;;;;7.97;3.03;;;;;;;12.64;81.79;99231.94;5052942;28;20658;-70
2023/03/31 05:49:01;;;;;;;9.73;2.93;;;;;;;12.52;82.25;99225.47;5052558;28;20297;-70
2023/03/31 05:51:29;;;;;;;8.50;2.73;;;;;;;12.48;83.01;99226.88;5051954;28;20242;-69
2023/03/31 05:53:56;;;;;;;12.77;3.00;;;;;;;12.46;83.06;99226.25;5050812;28;20216;-68
2023/03/31 05:56:26;;;;;;;14.50;4.93;;;;;;;12.47;83.68;99222.56;5053268;28;20207;-69
2023/03/31 05:58:54;;;;;;;14.17;3.50;;;;;;;12.33;85.98;99214.47;5053437;28;20216;-69
2023/03/31 06:01:22;;;;;;;14.07;3.57;;;;;;;12.39;86.33;99194.28;5052891;28;20218;-69
2023/03/31 06:03:50;;;;;;;8.93;3.73;;;;;;;12.32;87.31;99169.47;5053836;28;20210;-68
2023/03/31 06:06:20;;;;;;;9.50;3.23;;;;;;;12.30;87.13;99153.72;5051540;28;20214;-70
2023/03/31 06:08:48;;;;;;;8.33;3.17;;;;;;;12.16;88.09;99146.63;5050600;28;20242;-69
2023/03/31 06:11:18;;;;;;;12.07;2.90;;;;;;;12.08;88.96;99138.78;5050151;28;20227;-70
2023/03/31 06:13:46;;;;;;;7.30;3.20;;;;;;;12.06;89.10;99146.94;5053417;28;20252;-70
2023/03/31 06:16:15;;;;;;;12.70;3.40;;;;;;;12.03;89.90;99143.84;5050566;28;20210;-69
2023/03/31 06:18:44;;;;;;;13.90;3.10;;;;;;;12.11;89.64;99132.28;5051406;28;20245;-69
2023/03/31 06:21:15;;;;;;;7.33;3.03;;;;;;;12.13;89.57;99109.81;5051806;28;20294;-69
2023/03/31 06:23:44;;;;;;;15.63;3.93;;;;;;;12.10;89.32;99118.16;5052091;28;20301;-68
2023/03/31 06:26:14;;;;;;;9.67;3.07;;;;;;;12.11;89.56;99117.16;5052478;28;20219;-69
2023/03/31 06:28:42;;;;;;;8.60;3.30;;;;;;;12.07;89.80;99118.53;5050669;28;20303;-69
2023/03/31 06:31:11;;;;;;;7.77;3.30;;;;;;;12.06;90.00;99099.13;5050447;28;20364;-70
2023/03/31 06:33:40;;;;;;;7.90;3.37;;;;;;;12.09;90.22;99103.25;5052158;28;20210;-70
2023/03/31 06:36:09;;;;;;;12.07;3.50;;;;;;;12.14;90.01;99100.81;5054240;28;20211;-64
2023/03/31 06:38:38;;;;;;;15.57;4.50;;;;;;;12.15;90.54;99107.78;5051453;28;20219;-65
2023/03/31 06:41:08;;;;;;;15.23;5.20;;;;;;;12.17;90.59;99105.75;5054154;28;20909;-65
2023/03/31 06:43:36;;;;;;;12.50;4.20;;;;;;;12.22;89.86;99114.00;5045717;28;20217;-65
2023/03/31 06:46:06;;;;;;;9.37;4.03;;;;;;;12.19;90.09;99098.44;5052226;28;20306;-65
2023/03/31 06:48:34;;;;;;;10.63;4.43;;;;;;;12.21;90.14;99096.41;5043391;28;20291;-64
2023/03/31 06:51:04;;;;;;;11.17;4.20;;;;;;;12.26;89.74;99104.63;5049407;28;20326;-65
2023/03/31 06:53:32;;;;;;;13.53;4.70;;;;;;;12.32;90.61;99093.19;5046973;28;20221;-65
2023/03/31 06:56:00;;;;;;;10.80;4.07;;;;;;;12.31;90.72;99102.19;5043425;28;20229;-65
2023/03/31 06:58:29;;;;;;;11.37;4.33;;;;;;;12.34;89.55;99095.69;5048038;28;20807;-64
2023/03/31 07:00:59;;;;;;;9.90;4.37;;;;;;;12.39;89.32;99094.09;5048886;28;20200;-63
2023/03/31 07:03:28;;;;;;;14.73;4.50;;;;;;;12.32;89.70;99098.50;5050286;28;20209;-63
2023/03/31 07:05:56;;;;;;;11.37;4.20;;;;;;;12.38;89.53;99095.13;5052572;28;20207;-63
2023/03/31 07:08:24;;;;;;;10.60;4.50;;;;;;;12.44;89.57;99102.31;5054949;28;20314;-64
2023/03/31 07:10:56;;;;;;;15.63;4.77;;;;;;;12.47;89.81;99098.44;5051305;28;20228;-61
2023/03/31 07:13:25;;;;;;;18.07;5.10;;;;;;;12.50;90.10;99094.56;5054804;28;20227;-64
2023/03/31 07:15:55;;;;;;;16.03;4.60;;;;;;;12.49;90.66;99092.94;5052666;28;20207;-63
2023/03/31 07:18:24;;;;;;;11.50;4.43;;;;;;;12.40;91.59;99090.41;5051660;28;20221;-63
2023/03/31 07:20:53;;;;;;;10.63;5.40;;;;;;;12.48;91.07;99104.59;5051156;28;20592;-65
2023/03/31 07:23:20;;;;;;;13.47;5.00;;;;;;;12.38;91.75;99108.41;5051820;28;20211;-64
2023/03/31 07:25:48;;;;;;;11.43;5.33;;;;;;;12.42;91.13;99092.88;5053309;28;20226;-64
2023/03/31 07:28:16;;;;;;;11.10;4.93;;;;;;;12.39;91.57;99104.72;5050755;28;20334;-64
2023/03/31 07:30:47;;;;;;;13.90;5.70;;;;;;;12.44;91.47;99104.13;5047605;28;21008;-64
2023/03/31 07:33:16;;;;;;;12.43;5.03;;;;;;;12.53;91.31;99150.84;5051791;28;20211;-64
2023/03/31 07:35:44;;;;;;;16.83;5.77;;;;;;;12.61;91.34;99179.13;5048839;28;20211;-63
2023/03/31 07:38:14;;;;;;;16.57;5.60;;;;;;;12.67;91.46;99151.75;5049986;28;20211;-64
2023/03/31 07:40:44;;;;;;;13.90;5.47;;;;;;;12.64;93.64;99182.22;5052861;28;20235;-64
2023/03/31 07:43:14;;;;;;;19.47;5.77;;;;;;;12.74;94.17;99171.25;5046970;28;20211;-63
2023/03/31 07:45:43;;;;;;;11.30;4.30;;;;;;;12.73;91.79;99161.63;5050925;28;20203;-63
2023/03/31 07:48:11;;;;;;;14.10;4.03;;;;;;;12.82;90.88;99136.53;5049363;28;20215;-63
2023/03/31 07:50:40;;;;;;;10.33;4.00;;;;;;;12.95;89.13;99125.97;5051491;28;20319;-64
2023/03/31 07:53:08;;;;;;;11.40;3.57;;;;;;;12.91;88.36;99135.38;5049331;28;20230;-63
2023/03/31 07:55:36;;;;;;;6.77;2.53;;;;;;;12.95;86.51;99152.56;5043183;28;20216;-63
2023/03/31 07:58:04;;;;;;;3.23;1.80;;;;;;;12.99;84.65;99127.22;5050293;28;20219;-63
2023/03/31 08:00:32;;;;;;;4.77;2.03;;;;;;;13.06;84.52;99132.56;5049713;28;20207;-64
2023/03/31 08:02:59;;;;;;;8.43;2.63;;;;;;;13.09;83.92;99133.03;5048218;28;20207;-64
2023/03/31 08:05:27;;;;;;;8.20;2.60;;;;;;;13.12;83.97;99119.31;5050692;28;20735;-64
2023/03/31 08:08:00;;;;;;;8.73;3.13;;;;;;;13.09;84.69;99133.03;5053242;28;20203;-63
2023/03/31 08:10:28;;;;;;;12.47;3.63;;;;;;;13.11;86.45;99130.97;5052599;28;20231;-63
2023/03/31 08:12:56;;;;;;;10.87;4.80;;;;;;;13.16;86.22;99123.25;5050452;28;20200;-63
2023/03/31 08:15:24;;;;;;;13.03;5.20;;;;;;;13.10;87.19;99118.69;5049514;28;20231;-64
2023/03/31 08:17:52;;;;;;;13.30;4.90;;;;;;;13.07;88.47;99132.38;5050625;28;20223;-64
2023/03/31 08:20:20;;;;;;;12.53;5.33;;;;;;;13.04;89.45;99132.78;5052537;28;20322;-64
2023/03/31 08:22:49;;;;;;;12.83;5.53;;;;;;;13.07;90.99;99135.06;5051933;28;20235;-64
2023/03/31 08:25:20;;;;;;;13.07;5.57;;;;;;;13.12;90.88;99129.13;5052018;28;20212;-64
2023/03/31 08:27:49;;;;;;;15.60;5.80;;;;;;;13.10;91.37;99118.69;5052277;28;20210;-64
2023/03/31 08:30:19;;;;;;;12.93;5.57;;;;;;;13.17;91.03;99114.25;5049020;28;20208;-64
2023/03/31 08:32:47;;;;;;;12.00;4.90;;;;;;;13.21;90.39;99125.31;5052226;28;20350;-64
2023/03/31 08:35:14;;;;;;;10.40;4.67;;;;;;;13.18;89.04;99113.25;5056907;28;20299;-63
2023/03/31 08:37:42;;;;;;;10.43;3.40;;;;;;;13.27;87.76;99107.75;5055308;28;20693;-63
2023/03/31 08:40:14;;;;;;;9.57;2.73;;;;;;;13.28;85.42;99096.88;5052473;28;20247;-61
2023/03/31 08:42:50;;;;;;;7.47;2.60;;;;;;;13.37;83.52;99093.03;5052900;28;20214;-62
2023/03/31 08:45:22;;;;;;;5.47;1.93;;;;;;;13.46;82.68;99097.16;5054539;28;20200;-63
2023/03/31 08:47:53;;;;;;;3.97;1.77;;;;;;;13.65;82.25;99100.91;5059744;28;20568;-65
2023/03/31 08:50:25;;;;;;;8.77;1.90;;;;;;;14.02;80.21;99112.06;5051094;28;20212;-63
2023/03/31 08:52:59;;;;;;;7.77;2.00;;;;;;;14.18;78.84;99109.81;5054947;28;20212;-64
2023/03/31 08:55:34;;;;;;;9.57;2.27;;;;;;;14.25;78.13;99086.63;5054903;28;20267;-66
2023/03/31 08:58:13;;;;;;;8.20;2.37;;;;;;;14.27;77.72;99095.25;5056691;28;21124;-65
2023/03/31 09:00:46;;;;;;;8.20;2.93;;;;;;;14.29;77.91;99100.38;5054179;28;20219;-66
2023/03/31 09:03:26;;;;;;;7.67;2.53;;;;;;;14.38;77.39;99096.50;5056831;28;20716;-66
2023/03/31 09:06:00;;;;;;;8.67;2.03;;;;;;;14.60;76.49;99105.94;5052654;28;20798;-64
2023/03/31 09:08:36;;;;;;;8.13;2.60;;;;;;;14.59;75.89;99098.97;5054035;28;20603;-64
2023/03/31 09:11:26;;;;;;;6.23;1.83;;;;;;;14.43;75.34;99099.38;5054012;28;20219;-64
2023/03/31 09:14:15;;;;;;;5.33;1.87;;;;;;;14.21;77.21;99097.94;5054032;28;20250;-64
2023/03/31 09:16:51;;;;;;;9.60;2.60;;;;;;;13.96;79.14;99094.22;5054141;28;20888;-66
2023/03/31 09:19:30;;;;;;;9.70;3.13;;;;;;;13.78;80.72;99108.94;5052602;28;20609;-65
2023/03/31 09:22:00;;;;;;;9.43;2.87;;;;;;;13.68;81.34;99115.66;5049972;28;20206;-66
2023/03/31 09:24:30;;;;;;;11.53;2.47;;;;;;;13.53;80.45;99114.00;5054165;28;20224;-65
2023/03/31 09:27:02;;;;;;;9.30;2.23;;;;;;;13.44;76.96;99130.34;5052790;28;20253;-66
2023/03/31 09:29:38;;;;;;;10.50;2.27;;;;;;;13.33;74.20;99134.41;5054043;28;20215;-63
2023/03/31 09:32:15;;;;;;;11.13;2.20;;;;;;;13.10;75.73;99155.13;5050630;28;20223;-64
2023/03/31 09:34:44;;;;;;;9.30;1.70;;;;;;;12.97;75.83;99131.91;5054326;28;20221;-65
2023/03/31 09:37:13;;;;;;;5.67;1.40;;;;;;;12.76;75.52;99135.47;5053367;28;20203;-66
2023/03/31 09:39:41;;;;;;;5.67;0.83;;;;;;;12.68;76.48;99130.28;5053152;28;20247;-66
2023/03/31 09:42:12;;;;;;;3.90;1.00;;;;;;;12.65;76.29;99135.19;5052033;28;20209;-65
2023/03/31 09:44:43;;;;;;;7.47;0.80;;;;;;;12.62;75.24;99112.47;5051000;28;20212;-65
2023/03/31 09:47:14;;;;;;;4.07;1.00;;;;;;;12.60;74.89;99082.56;5053316;28;20249;-65
2023/03/31 09:49:45;;;;;;;6.90;0.80;;;;;;;12.71;74.35;99075.91;5053664;28;20244;-65
2023/03/31 09:52:28;;;;;;;4.40;0.90;;;;;;;12.74;74.31;99081.66;5053586;28;20228;-68
2023/03/31 09:55:00;;;;;;;5.30;1.40;;;;;;;12.80;74.37;99064.09;5052667;28;20235;-66
2023/03/31 09:57:29;;;;;;;3.77;0.70;;;;;;;12.94;74.27;99055.13;5052729;28;20213;-63
2023/03/31 10:00:15;;;;;;;3.43;0.73;;;;;;;13.01;74.88;99055.19;5053441;28;20207;-64
2023/03/31 10:02:44;;;;;;;4.00;0.70;;;;;;;13.08;75.64;99034.75;5051449;28;20203;-67
2023/03/31 10:05:24;;;;;;;4.13;1.20;;;;;;;13.14;76.52;99045.44;5053840;28;20229;-66
2023/03/31 10:08:25;;;;;;;5.93;1.40;;;;;;;13.31;75.75;99026.47;5052175;28;20209;-65
2023/03/31 10:10:54;;;;;;;5.77;1.20;;;;;;;13.88;74.97;99037.44;5053886;28;20213;-68
2023/03/31 10:13:24;;;;;;;5.87;0.97;;;;;;;15.41;68.17;99022.72;5053570;28;20237;-63
2023/03/31 10:15:54;;;;;;;25.00;2.70;;;;;;;17.97;61.44;99013.03;5053731;28;20791;-63
2023/03/31 10:18:33;;;;;;;4.40;1.30;;;;;;;20.01;52.58;99010.81;5052218;28;20236;-64
2023/03/31 10:21:03;;;;;;;3.23;1.20;;;;;;;20.61;49.12;99006.38;5052968;28;20218;-65
2023/03/31 10:23:35;;;;;;;8.10;1.67;;;;;;;20.91;48.29;99002.47;5050622;28;20216;-62
2023/03/31 10:26:04;;;;;;;5.87;1.47;;;;;;;20.88;47.85;99013.72;5053331;28;20206;-63
2023/03/31 10:28:35;;;;;;;5.60;1.37;;;;;;;19.83;50.10;99026.13;5052915;28;20208;-64
2023/03/31 10:31:04;;;;;;;8.77;1.60;;;;;;;19.00;52.80;99007.03;5050135;28;20597;-62
2023/03/31 10:33:34;;;;;;;6.73;1.97;;;;;;;18.45;54.76;99012.03;5051768;28;20266;-61
2023/03/31 10:36:08;;;;;;;7.63;1.50;;;;;;;17.27;57.30;99002.09;5051815;28;21051;-62
2023/03/31 10:38:43;;;;;;;7.27;1.90;;;;;;;16.44;60.39;99013.34;5053019;28;20331;-63
2023/03/31 10:41:13;;;;;;;9.37;1.90;;;;;;;15.98;62.22;99003.03;5032592;28;20212;-62
2023/03/31 10:43:42;;;;;;;7.77;2.00;;;;;;;15.91;62.80;99002.28;5035624;28;20213;-63
2023/03/31 10:46:12;;;;;;;8.93;2.30;;;;;;;15.99;62.74;99006.53;5032893;28;20208;-62
2023/03/31 10:48:41;;;;;;;9.70;2.57;;;;;;;16.12;62.64;99009.09;5032114;28;20212;-63
2023/03/31 10:51:16;;;;;;;13.57;2.83;;;;;;;16.10;63.13;99006.63;5030150;28;20684;-63
2023/03/31 10:53:47;;;;;;;7.57;2.30;;;;;;;16.18;63.11;99009.03;5035364;28;20223;-62
2023/03/31 10:56:35;;;;;;;11.50;2.90;;;;;;;16.40;63.52;98995.25;5031492;28;20215;-62
2023/03/31 10:59:18;;;;;;;7.50;2.80;;;;;;;16.57;63.11;98993.63;5030421;28;20208;-63
2023/03/31 11:02:03;;;;;;;11.83;2.63;;;;;;;16.78;62.12;98987.06;5032227;28;20243;-63
2023/03/31 11:04:44;;;;;;;13.23;2.77;;;;;;;16.57;62.46;98972.22;5032309;28;20876;-63
2023/03/31 11:07:27;;;;;;;12.73;2.37;;;;;;;16.31;62.49;98973.31;5033949;28;20215;-62
2023/03/31 11:10:11;;;;;;;9.63;2.27;;;;;;;16.15;62.44;98977.41;5033145;28;20235;-61
2023/03/31 11:12:45;;;;;;;11.07;2.37;;;;;;;15.90;63.05;98981.13;5031937;28;20232;-66
2023/03/31 11:15:21;;;;;;;10.57;1.87;;;;;;;15.71;63.10;98974.88;5032601;28;20212;-63
2023/03/31 11:18:01;;;;;;;8.23;2.07;;;;;;;15.59;64.23;98965.94;5031558;28;20212;-65
2023/03/31 11:20:36;;;;;;;9.83;1.53;;;;;;;15.46;63.91;98966.00;5036341;28;20725;-64
2023/03/31 11:23:13;;;;;;;9.97;1.87;;;;;;;15.55;62.69;98976.25;5034042;28;20212;-66
2023/03/31 11:25:52;;;;;;;7.07;1.20;;;;;;;15.94;61.29;98974.28;5032482;28;20226;-65
2023/03/31 11:28:32;;;;;;;5.30;1.53;;;;;;;16.37;59.98;98967.09;5036568;28;20199;-65
2023/03/31 11:31:12;;;;;;;5.47;1.30;;;;;;;16.68;58.73;98970.69;5034034;28;20499;-65
2023/03/31 11:34:04;;;;;;;8.67;1.03;;;;;;;17.39;57.39;98957.41;5024982;28;20239;-64
2023/03/31 11:36:50;;;;;;;5.80;1.43;;;;;;;18.24;54.49;98954.38;5031838;28;20212;-65
2023/03/31 11:39:31;;;;;;;6.40;1.53;;;;;;;19.20;51.17;98959.09;5038069;28;20722;-64
2023/03/31 11:42:03;;;;;;;4.20;1.17;;;;;;;20.08;48.77;98954.97;5052519;28;20204;-64
2023/03/31 11:44:40;;;;;;;5.93;1.57;;;;;;;20.44;47.71;98965.22;5049689;28;20203;-64
2023/03/31 11:47:10;;;;;;;4.30;1.20;;;;;;;21.09;46.21;98969.81;5051274;28;20703;-65
2023/03/31 11:49:42;;;;;;;6.10;1.13;;;;;;;21.30;44.93;98966.28;5051816;28;20239;-65
2023/03/31 11:52:15;;;;;;;4.87;1.10;;;;;;;20.69;45.70;98974.69;5052997;28;20207;-64
2023/03/31 11:54:51;;;;;;;5.50;1.40;;;;;;;19.84;47.85;98976.66;5050950;28;20905;-64